createdAt,value
2023-02-24T00:02:05.479Z,9.30
2023-02-24T00:04:39.369Z,9.30
2023-02-24T00:07:08.047Z,9.20
2023-02-24T00:09:34.617Z,9.20
2023-02-24T00:12:05.404Z,9.20
2023-02-24T00:14:35.177Z,9.30
2023-02-24T00:17:02.313Z,9.30
2023-02-24T00:19:33.858Z,9.20
2023-02-24T00:22:02.071Z,9.20
2023-02-24T00:24:28.621Z,9.20
2023-02-24T00:26:59.211Z,9.20
2023-02-24T00:29:28.339Z,9.20
2023-02-24T00:32:00.391Z,9.20
2023-02-24T00:34:31.201Z,9.20
2023-02-24T00:36:58.741Z,9.10
2023-02-24T00:39:30.086Z,9.10
2023-02-24T00:42:06.358Z,9.10
2023-02-24T00:44:34.492Z,9.10
2023-02-24T00:47:02.609Z,9.10
2023-02-24T00:49:29.467Z,9.00
2023-02-24T00:51:56.472Z,9.00
2023-02-24T00:54:27.011Z,9.00
2023-02-24T00:56:54.782Z,9.00
2023-02-24T00:59:24.650Z,9.00
2023-02-24T01:01:51.798Z,9.00
2023-02-24T01:04:19.884Z,8.90
2023-02-24T01:06:50.070Z,8.90
2023-02-24T01:09:21.109Z,8.90
2023-02-24T01:12:17.972Z,8.80
2023-02-24T01:14:47.683Z,8.90
2023-02-24T01:17:15.921Z,8.90
2023-02-24T01:19:44.155Z,8.90
2023-02-24T01:22:14.800Z,8.90
2023-02-24T01:24:43.172Z,8.90
2023-02-24T01:27:11.729Z,8.90
2023-02-24T01:29:39.572Z,8.90
2023-02-24T01:32:17.267Z,8.90
2023-02-24T01:34:44.523Z,8.90
2023-02-24T01:37:16.116Z,8.80
2023-02-24T01:39:45.073Z,8.80
2023-02-24T01:42:16.815Z,8.90
2023-02-24T01:44:43.609Z,8.90
2023-02-24T01:47:11.619Z,8.90
2023-02-24T01:49:45.210Z,8.90
2023-02-24T01:52:23.838Z,8.90
2023-02-24T01:54:58.815Z,8.90
2023-02-24T01:57:29.713Z,8.90
2023-02-24T02:00:02.226Z,8.80
2023-02-24T02:02:29.408Z,8.80
2023-02-24T02:05:00.717Z,8.80
2023-02-24T02:07:29.760Z,8.70
2023-02-24T02:10:00.302Z,8.70
2023-02-24T02:12:28.290Z,8.60
2023-02-24T02:14:59.267Z,8.60
2023-02-24T02:17:58.952Z,8.70
2023-02-24T02:20:42.421Z,8.60
2023-02-24T02:23:23.768Z,8.50
2023-02-24T02:26:28.056Z,8.60
2023-02-24T02:29:39.232Z,8.50
2023-02-24T02:32:31.327Z,8.60
2023-02-24T02:35:19.086Z,8.60
2023-02-24T02:37:58.584Z,8.60
2023-02-24T02:40:41.417Z,8.70
2023-02-24T02:43:42.464Z,8.60
2023-02-24T02:46:37.830Z,8.70
2023-02-24T02:49:42.784Z,8.70
2023-02-24T02:52:33.919Z,8.60
2023-02-24T02:55:37.402Z,8.60
2023-02-24T02:58:09.058Z,8.70
2023-02-24T03:00:49.980Z,8.70
2023-02-24T03:03:18.291Z,8.60
2023-02-24T03:05:56.042Z,8.60
2023-02-24T03:08:28.081Z,8.60
2023-02-24T03:11:00.280Z,8.60
2023-02-24T03:13:30.243Z,8.60
2023-02-24T03:16:00.026Z,8.60
2023-02-24T03:18:33.181Z,8.60
2023-02-24T03:21:07.582Z,8.60
2023-02-24T03:23:50.324Z,8.50
2023-02-24T03:26:30.580Z,8.50
2023-02-24T03:29:06.054Z,8.50
2023-02-24T03:31:35.669Z,8.60
2023-02-24T03:34:07.588Z,8.60
2023-02-24T03:36:34.308Z,8.60
2023-02-24T03:39:01.990Z,8.60
2023-02-24T03:41:38.461Z,8.50
2023-02-24T03:44:10.885Z,8.50
2023-02-24T03:46:38.960Z,8.50
2023-02-24T03:49:14.110Z,8.50
2023-02-24T03:51:44.706Z,8.50
2023-02-24T03:54:52.116Z,8.60
2023-02-24T03:57:34.624Z,8.60
2023-02-24T04:00:42.081Z,8.60
2023-02-24T04:03:17.885Z,8.60
2023-02-24T04:05:58.784Z,8.60
2023-02-24T04:08:29.927Z,8.50
2023-02-24T04:11:10.362Z,8.60
2023-02-24T04:13:51.989Z,8.50
2023-02-24T04:16:28.916Z,8.40
2023-02-24T04:19:07.405Z,8.30
2023-02-24T04:21:36.965Z,8.30
2023-02-24T04:24:11.302Z,8.10
2023-02-24T04:26:40.451Z,8.00
2023-02-24T04:29:09.518Z,8.10
2023-02-24T04:31:39.005Z,8.10
2023-02-24T04:34:09.293Z,8.20
2023-02-24T04:36:35.913Z,8.20
2023-02-24T04:39:02.457Z,8.20
2023-02-24T04:41:29.074Z,8.20
2023-02-24T04:43:55.641Z,8.20
2023-02-24T04:46:23.276Z,8.10
2023-02-24T04:48:50.881Z,8.00
2023-02-24T04:51:20.678Z,8.10
2023-02-24T04:53:49.613Z,8.10
2023-02-24T04:56:18.504Z,8.20
2023-02-24T04:58:46.256Z,8.20
2023-02-24T05:01:13.230Z,8.10
2023-02-24T05:03:42.756Z,8.10
2023-02-24T05:06:18.322Z,8.10
2023-02-24T05:08:45.043Z,8.00
2023-02-24T05:11:16.494Z,8.00
2023-02-24T05:13:46.929Z,8.00
2023-02-24T05:16:15.370Z,8.00
2023-02-24T05:18:42.554Z,8.00
2023-02-24T05:21:30.574Z,8.00
2023-02-24T05:24:06.276Z,8.00
2023-02-24T05:26:35.758Z,7.90
2023-02-24T05:29:04.735Z,7.90
2023-02-24T05:31:31.475Z,7.90
2023-02-24T05:34:08.134Z,8.00
2023-02-24T05:36:40.189Z,8.00
2023-02-24T05:39:09.469Z,8.00
2023-02-24T05:41:38.645Z,8.00
2023-02-24T05:44:09.406Z,8.00
2023-02-24T05:46:39.693Z,8.00
2023-02-24T05:49:11.790Z,7.90
2023-02-24T05:51:39.117Z,8.00
2023-02-24T05:54:08.025Z,8.00
2023-02-24T05:56:37.088Z,8.10
2023-02-24T05:59:07.297Z,8.10
2023-02-24T06:01:36.026Z,8.00
2023-02-24T06:04:05.836Z,8.00
2023-02-24T06:06:38.104Z,8.00
2023-02-24T06:09:10.825Z,8.00
2023-02-24T06:11:40.566Z,8.00
2023-02-24T06:14:08.821Z,8.00
2023-02-24T06:16:40.988Z,8.10
2023-02-24T06:19:10.444Z,8.10
2023-02-24T06:21:41.114Z,8.10
2023-02-24T06:24:14.477Z,8.10
2023-02-24T06:26:45.599Z,8.10
2023-02-24T06:29:17.238Z,8.00
2023-02-24T06:31:44.471Z,8.10
2023-02-24T06:34:13.050Z,8.10
2023-02-24T06:36:39.719Z,8.00
2023-02-24T06:39:07.996Z,8.00
2023-02-24T06:41:35.631Z,8.00
2023-02-24T06:44:02.179Z,7.90
2023-02-24T06:46:28.860Z,7.90
2023-02-24T06:48:56.323Z,8.00
2023-02-24T06:51:23.990Z,8.00
2023-02-24T06:53:52.117Z,8.10
2023-02-24T06:56:19.664Z,8.10
2023-02-24T06:58:50.466Z,8.20
2023-02-24T07:01:26.696Z,8.10
2023-02-24T07:04:02.463Z,8.10
2023-02-24T07:06:31.739Z,8.20
2023-02-24T07:08:59.008Z,8.20
2023-02-24T07:11:27.830Z,8.10
2023-02-24T07:13:54.636Z,8.10
2023-02-24T07:16:26.029Z,8.20
2023-02-24T07:18:58.300Z,8.20
2023-02-24T07:21:26.736Z,8.10
2023-02-24T07:23:58.737Z,8.10
2023-02-24T07:26:27.560Z,8.20
2023-02-24T07:28:55.047Z,8.30
2023-02-24T07:31:24.706Z,8.30
2023-02-24T07:33:57.152Z,8.40
2023-02-24T07:36:24.497Z,8.40
2023-02-24T07:38:55.047Z,8.40
2023-02-24T07:41:23.287Z,8.50
2023-02-24T07:43:51.808Z,8.50
2023-02-24T07:46:24.718Z,8.60
2023-02-24T07:48:52.502Z,8.50
2023-02-24T07:51:21.863Z,8.40
2023-02-24T07:53:54.093Z,8.40
2023-02-24T07:56:26.874Z,8.40
2023-02-24T07:59:00.489Z,8.40
2023-02-24T08:01:29.236Z,8.40
2023-02-24T08:04:03.076Z,8.50
2023-02-24T08:06:38.020Z,8.50
2023-02-24T08:09:30.542Z,8.60
2023-02-24T08:11:57.083Z,8.60
2023-02-24T08:14:26.488Z,8.60
2023-02-24T08:16:59.285Z,8.60
2023-02-24T08:19:39.342Z,8.60
2023-02-24T08:22:19.800Z,8.60
2023-02-24T08:25:05.741Z,8.60
2023-02-24T08:27:38.819Z,8.70
2023-02-24T08:30:15.566Z,8.60
2023-02-24T08:32:43.704Z,8.60
2023-02-24T08:35:16.974Z,8.70
2023-02-24T08:37:48.886Z,8.70
2023-02-24T08:40:33.461Z,8.80
2023-02-24T08:43:22.023Z,8.80
2023-02-24T08:45:51.833Z,8.90
2023-02-24T08:48:37.510Z,8.90
2023-02-24T08:51:22.882Z,8.90
2023-02-24T08:53:58.601Z,8.90
2023-02-24T08:56:34.445Z,9.10
2023-02-24T08:59:07.680Z,8.90
2023-02-24T09:01:38.206Z,8.90
2023-02-24T09:04:12.945Z,9.10
2023-02-24T09:06:51.294Z,9.20
2023-02-24T09:09:23.552Z,9.20
2023-02-24T09:11:58.517Z,9.30
2023-02-24T09:14:29.682Z,9.30
2023-02-24T09:17:02.607Z,9.40
2023-02-24T09:20:02.129Z,9.40
2023-02-24T09:22:31.897Z,9.20
2023-02-24T09:25:18.883Z,9.30
2023-02-24T09:27:55.643Z,9.40
2023-02-24T09:30:36.426Z,9.50
2023-02-24T09:33:07.304Z,9.40
2023-02-24T09:35:42.544Z,9.40
2023-02-24T09:38:09.101Z,9.40
2023-02-24T09:40:40.141Z,9.50
2023-02-24T09:43:17.529Z,9.60
2023-02-24T09:45:53.706Z,9.50
2023-02-24T09:48:43.531Z,9.40
2023-02-24T09:51:22.578Z,9.50
2023-02-24T09:53:53.457Z,9.60
2023-02-24T09:56:24.868Z,9.70
2023-02-24T09:59:27.634Z,9.60
2023-02-24T10:02:33.975Z,9.70
2023-02-24T10:05:07.599Z,9.80
2023-02-24T10:07:39.933Z,9.80
2023-02-24T10:10:28.396Z,9.90
2023-02-24T10:13:17.029Z,9.80
2023-02-24T10:15:58.052Z,9.80
2023-02-24T10:19:11.604Z,9.80
2023-02-24T10:22:08.079Z,10.00
2023-02-24T10:25:01.276Z,9.80
2023-02-24T10:27:53.114Z,9.80
2023-02-24T10:30:40.604Z,9.90
2023-02-24T10:33:20.478Z,9.90
2023-02-24T10:35:47.766Z,10.00
2023-02-24T10:38:14.974Z,9.90
2023-02-24T10:40:56.615Z,10.10
2023-02-24T10:43:32.178Z,10.30
2023-02-24T10:46:07.495Z,10.50
2023-02-24T10:48:42.351Z,10.60
2023-02-24T10:51:20.379Z,10.90
2023-02-24T10:54:09.597Z,11.00
2023-02-24T10:56:44.864Z,10.70
2023-02-24T10:59:24.831Z,10.50
2023-02-24T11:02:29.241Z,10.40
2023-02-24T11:05:03.204Z,10.50
2023-02-24T11:07:45.201Z,10.40
2023-02-24T11:10:26.096Z,10.50
2023-02-24T11:13:13.730Z,10.60
2023-02-24T11:16:07.261Z,10.90
2023-02-24T11:18:34.798Z,11.00
2023-02-24T11:21:07.356Z,10.70
2023-02-24T11:23:49.638Z,10.60
2023-02-24T11:26:23.486Z,10.70
2023-02-24T11:29:07.830Z,10.50
2023-02-24T11:32:24.509Z,10.70
2023-02-24T11:34:58.028Z,10.90
2023-02-24T11:37:27.874Z,11.40
2023-02-24T11:40:09.634Z,11.30
2023-02-24T11:42:48.682Z,11.60
2023-02-24T11:45:43.050Z,11.70
2023-02-24T11:48:27.384Z,11.30
2023-02-24T11:51:00.435Z,11.00
2023-02-24T11:54:01.885Z,11.10
2023-02-24T11:56:45.780Z,10.90
2023-02-24T11:59:33.122Z,11.20
2023-02-24T12:02:27.582Z,11.10
2023-02-24T12:05:14.503Z,10.80
2023-02-24T12:08:07.597Z,10.60
2023-02-24T12:10:57.666Z,10.60
2023-02-24T12:13:36.447Z,10.70
2023-02-24T12:16:12.774Z,10.70
2023-02-24T12:18:44.731Z,10.90
2023-02-24T12:21:23.699Z,10.70
2023-02-24T12:23:53.589Z,10.70
2023-02-24T12:26:29.248Z,10.60
2023-02-24T12:29:07.170Z,10.70
2023-02-24T12:32:07.772Z,10.40
2023-02-24T12:34:47.027Z,10.50
2023-02-24T12:37:35.082Z,10.60
2023-02-24T12:40:01.630Z,10.50
2023-02-24T12:43:04.617Z,10.40
2023-02-24T12:45:46.331Z,10.50
2023-02-24T12:48:56.758Z,10.40
2023-02-24T12:51:47.788Z,10.30
2023-02-24T12:54:22.677Z,10.30
2023-02-24T12:56:58.672Z,10.10
2023-02-24T12:59:29.534Z,10.00
2023-02-24T13:02:05.887Z,9.90
2023-02-24T13:04:54.099Z,9.90
2023-02-24T13:07:38.560Z,10.00
2023-02-24T13:10:16.793Z,9.90
2023-02-24T13:12:48.476Z,9.80
2023-02-24T13:15:25.224Z,9.80
2023-02-24T13:17:54.539Z,9.80
2023-02-24T13:20:30.583Z,9.80
2023-02-24T13:22:59.162Z,9.70
2023-02-24T13:25:38.730Z,9.70
2023-02-24T13:28:20.939Z,9.70
2023-02-24T13:30:57.318Z,9.70
2023-02-24T13:33:30.137Z,9.70
2023-02-24T13:36:12.048Z,9.60
2023-02-24T13:38:42.528Z,9.50
2023-02-24T13:41:29.366Z,9.60
2023-02-24T13:44:21.064Z,9.80
2023-02-24T13:46:59.769Z,9.80
2023-02-24T13:50:00.658Z,9.80
2023-02-24T13:52:50.573Z,9.80
2023-02-24T13:55:22.850Z,9.80
2023-02-24T13:57:58.265Z,9.90
2023-02-24T14:00:53.029Z,9.90
2023-02-24T14:03:24.243Z,9.90
2023-02-24T14:05:51.713Z,9.90
2023-02-24T14:08:44.489Z,10.00
2023-02-24T14:11:15.020Z,9.90
2023-02-24T14:13:47.171Z,9.90
2023-02-24T14:16:20.987Z,9.80
2023-02-24T14:19:01.726Z,9.70
2023-02-24T14:21:31.145Z,9.70
2023-02-24T14:24:05.147Z,9.70
2023-02-24T14:26:41.873Z,9.80
2023-02-24T14:29:08.920Z,9.80
2023-02-24T14:31:35.955Z,9.70
2023-02-24T14:34:04.861Z,9.60
2023-02-24T14:36:45.033Z,9.60
2023-02-24T14:39:38.094Z,9.50
2023-02-24T14:42:13.014Z,9.50
2023-02-24T14:44:54.612Z,9.50
2023-02-24T14:47:24.260Z,9.50
2023-02-24T14:49:59.233Z,9.50
2023-02-24T14:52:35.327Z,9.50
2023-02-24T14:55:17.373Z,9.50
2023-02-24T14:57:56.444Z,9.50
2023-02-24T15:00:32.903Z,9.40
2023-02-24T15:03:23.828Z,9.40
2023-02-24T15:05:54.903Z,9.30
2023-02-24T15:08:29.777Z,9.20
2023-02-24T15:10:56.726Z,9.30
2023-02-24T15:13:40.955Z,9.30
2023-02-24T15:16:16.056Z,9.30
2023-02-24T15:18:42.960Z,9.30
2023-02-24T15:21:38.587Z,9.30
2023-02-24T15:24:19.560Z,9.20
2023-02-24T15:26:56.997Z,9.20
2023-02-24T15:29:27.610Z,9.10
2023-02-24T15:31:56.138Z,9.10
2023-02-24T15:34:29.670Z,9.20
2023-02-24T15:37:02.883Z,9.10
2023-02-24T15:39:31.666Z,8.90
2023-02-24T15:42:17.298Z,8.90
2023-02-24T15:44:54.426Z,8.90
2023-02-24T15:47:24.556Z,8.90
2023-02-24T15:49:51.325Z,8.90
2023-02-24T15:52:24.130Z,8.80
2023-02-24T15:54:52.184Z,8.80
2023-02-24T15:57:20.106Z,8.70
2023-02-24T15:59:47.250Z,8.80
2023-02-24T16:02:18.300Z,8.80
2023-02-24T16:04:45.745Z,8.80
2023-02-24T16:07:20.194Z,8.80
2023-02-24T16:09:48.994Z,8.80
2023-02-24T16:12:29.273Z,8.70
2023-02-24T16:15:05.816Z,8.80
2023-02-24T16:17:40.551Z,8.80
2023-02-24T16:20:14.916Z,8.80
2023-02-24T16:22:41.529Z,8.70
2023-02-24T16:25:08.846Z,8.70
2023-02-24T16:27:36.193Z,8.70
2023-02-24T16:30:03.482Z,8.70
2023-02-24T16:32:30.260Z,8.60
2023-02-24T16:34:57.086Z,8.40
2023-02-24T16:37:27.667Z,8.30
2023-02-24T16:39:55.184Z,8.10
2023-02-24T16:42:22.067Z,8.00
2023-02-24T16:44:49.168Z,8.00
2023-02-24T16:47:20.951Z,8.00
2023-02-24T16:49:47.711Z,7.90
2023-02-24T16:52:14.832Z,7.80
2023-02-24T16:54:41.455Z,7.70
2023-02-24T16:57:08.059Z,7.60
2023-02-24T16:59:34.768Z,7.50
2023-02-24T17:02:02.141Z,7.60
2023-02-24T17:04:29.198Z,7.40
2023-02-24T17:06:56.055Z,7.40
2023-02-24T17:09:22.820Z,7.40
2023-02-24T17:11:49.527Z,7.40
2023-02-24T17:14:18.643Z,7.40
2023-02-24T17:16:46.064Z,7.30
2023-02-24T17:19:13.662Z,7.20
2023-02-24T17:21:43.226Z,7.30
2023-02-24T17:24:15.970Z,7.10
2023-02-24T17:26:43.328Z,7.10
2023-02-24T17:29:10.978Z,7.00
2023-02-24T17:31:37.898Z,7.00
2023-02-24T17:34:06.336Z,7.00
2023-02-24T17:36:33.297Z,7.00
2023-02-24T17:39:01.113Z,6.90
2023-02-24T17:41:27.782Z,6.80
2023-02-24T17:43:54.767Z,6.80
2023-02-24T17:46:22.288Z,6.70
2023-02-24T17:48:49.176Z,6.70
2023-02-24T17:51:19.941Z,6.60
2023-02-24T17:53:46.652Z,6.70
2023-02-24T17:56:13.451Z,6.60
2023-02-24T17:58:40.122Z,6.60
2023-02-24T18:01:06.843Z,6.60
2023-02-24T18:03:35.406Z,6.60
2023-02-24T18:06:07.614Z,6.50
2023-02-24T18:08:35.512Z,6.50
2023-02-24T18:11:02.757Z,6.50
2023-02-24T18:13:30.668Z,6.50
2023-02-24T18:15:57.824Z,6.40
2023-02-24T18:18:25.412Z,6.40
2023-02-24T18:20:52.168Z,6.30
2023-02-24T18:23:19.131Z,6.30
2023-02-24T18:25:45.726Z,6.30
2023-02-24T18:28:12.327Z,6.30
2023-02-24T18:30:39.378Z,6.20
2023-02-24T18:33:06.341Z,6.20
2023-02-24T18:35:33.128Z,6.30
2023-02-24T18:37:59.705Z,6.20
2023-02-24T18:40:27.138Z,6.30
2023-02-24T18:42:53.886Z,6.40
2023-02-24T18:45:21.241Z,6.40
2023-02-24T18:47:49.849Z,6.40
2023-02-24T18:50:16.545Z,6.40
2023-02-24T18:52:43.588Z,6.40
2023-02-24T18:55:10.498Z,6.40
2023-02-24T18:57:37.609Z,6.50
2023-02-24T19:00:06.067Z,6.50
2023-02-24T19:02:32.870Z,6.40
2023-02-24T19:04:59.483Z,6.50
2023-02-24T19:07:26.069Z,6.40
2023-02-24T19:09:52.798Z,6.40
2023-02-24T19:12:20.323Z,6.40
2023-02-24T19:14:51.273Z,6.30
2023-02-24T19:17:18.408Z,6.40
2023-02-24T19:19:46.552Z,6.40
2023-02-24T19:22:13.251Z,6.50
2023-02-24T19:24:40.024Z,6.40
2023-02-24T19:27:06.792Z,6.40
2023-02-24T19:29:33.376Z,6.40
2023-02-24T19:32:00.220Z,6.40
2023-02-24T19:34:27.113Z,6.40
2023-02-24T19:36:53.693Z,6.40
2023-02-24T19:39:20.273Z,6.30
2023-02-24T19:41:49.460Z,6.30
2023-02-24T19:44:16.398Z,6.30
2023-02-24T19:46:43.231Z,6.30
2023-02-24T19:49:10.023Z,6.30
2023-02-24T19:51:37.710Z,6.30
2023-02-24T19:54:05.859Z,6.30
2023-02-24T19:56:35.432Z,6.30
2023-02-24T19:59:03.825Z,6.20
2023-02-24T20:01:31.111Z,6.20
2023-02-24T20:04:00.710Z,6.20
2023-02-24T20:06:35.877Z,6.20
2023-02-24T20:09:05.232Z,6.30
2023-02-24T20:11:37.986Z,6.30
2023-02-24T20:14:06.201Z,6.30
2023-02-24T20:16:34.588Z,6.30
2023-02-24T20:19:01.567Z,6.20
2023-02-24T20:21:28.678Z,6.20
2023-02-24T20:24:00.761Z,6.20
2023-02-24T20:26:28.669Z,6.20
2023-02-24T20:28:55.956Z,6.20
2023-02-24T20:31:23.807Z,6.30
2023-02-24T20:33:51.279Z,6.30
2023-02-24T20:36:20.643Z,6.30
2023-02-24T20:38:47.644Z,6.20
2023-02-24T20:41:14.502Z,6.20
2023-02-24T20:43:41.336Z,6.20
2023-02-24T20:46:16.954Z,6.10
2023-02-24T20:48:44.348Z,6.00
2023-02-24T20:51:12.296Z,6.00
2023-02-24T20:53:55.570Z,6.10
2023-02-24T20:56:25.151Z,6.10
2023-02-24T20:58:56.509Z,6.10
2023-02-24T21:01:23.097Z,6.10
2023-02-24T21:03:50.923Z,6.10
2023-02-24T21:06:18.489Z,6.20
2023-02-24T21:08:45.592Z,6.10
2023-02-24T21:11:13.652Z,6.20
2023-02-24T21:13:46.406Z,6.20
2023-02-24T21:16:15.356Z,6.20
2023-02-24T21:18:44.073Z,6.20
2023-02-24T21:21:12.513Z,6.30
2023-02-24T21:23:47.529Z,6.30
2023-02-24T21:26:15.003Z,6.40
2023-02-24T21:28:49.357Z,6.40
2023-02-24T21:31:20.533Z,6.40
2023-02-24T21:33:51.803Z,6.40
2023-02-24T21:36:20.833Z,6.30
2023-02-24T21:38:47.745Z,6.30
2023-02-24T21:41:15.224Z,6.30
2023-02-24T21:43:44.794Z,6.30
2023-02-24T21:46:13.138Z,6.30
2023-02-24T21:48:40.655Z,6.20
2023-02-24T21:51:09.992Z,6.30
2023-02-24T21:53:39.093Z,6.20
2023-02-24T21:56:16.156Z,6.30
2023-02-24T21:58:46.090Z,6.30
2023-02-24T22:01:22.409Z,6.20
2023-02-24T22:03:49.104Z,6.20
2023-02-24T22:06:17.732Z,6.30
2023-02-24T22:08:45.322Z,6.30
2023-02-24T22:11:14.024Z,6.30
2023-02-24T22:13:42.040Z,6.20
2023-02-24T22:16:11.237Z,6.20
2023-02-24T22:18:37.881Z,6.20
2023-02-24T22:21:13.268Z,6.20
2023-02-24T22:23:40.049Z,6.10
2023-02-24T22:26:09.561Z,6.10
2023-02-24T22:28:38.785Z,6.20
2023-02-24T22:31:06.709Z,6.10
2023-02-24T22:33:35.011Z,6.10
2023-02-24T22:36:06.383Z,5.90
2023-02-24T22:38:34.058Z,6.00
2023-02-24T22:41:02.799Z,6.00
2023-02-24T22:43:29.662Z,5.90
2023-02-24T22:46:07.204Z,5.80
2023-02-24T22:48:35.791Z,5.80
2023-02-24T22:51:04.742Z,5.80
2023-02-24T22:53:33.290Z,5.70
2023-02-24T22:56:00.168Z,5.70
2023-02-24T22:58:26.924Z,5.70
2023-02-24T23:00:54.722Z,5.70
2023-02-24T23:03:24.866Z,5.80
2023-02-24T23:06:05.096Z,5.70
2023-02-24T23:08:34.099Z,5.90
2023-02-24T23:11:06.632Z,5.80
2023-02-24T23:13:38.152Z,5.70
2023-02-24T23:16:07.550Z,5.70
2023-02-24T23:18:35.340Z,5.70
2023-02-24T23:21:04.871Z,5.70
2023-02-24T23:23:32.435Z,5.60
2023-02-24T23:25:59.481Z,5.70
2023-02-24T23:28:26.755Z,5.70
2023-02-24T23:30:54.404Z,5.70
2023-02-24T23:33:21.608Z,5.70
2023-02-24T23:35:48.872Z,5.70
2023-02-24T23:38:15.822Z,5.60
2023-02-24T23:40:50.102Z,5.50
2023-02-24T23:43:17.894Z,5.50
2023-02-24T23:45:44.705Z,5.50
2023-02-24T23:48:13.816Z,5.50
2023-02-24T23:50:42.023Z,5.50
2023-02-24T23:53:08.918Z,5.40
2023-02-24T23:55:35.801Z,5.40
2023-02-24T23:58:03.654Z,5.40
